Gorham, NH

6:16 AM EDT on July 23, 2016 (GMT -0400)
Norwegian village | | Change Station

Elev 1099 ft 44.48 °N, 71.17 °W | Updated 15 seconds ago

Overcast
Overcast
61.9 °F
Feels Like 61.9 °F
N
0.0
Wind Variable Wind from NW
Gusts 0.0 mph

Today
High -- | Low -- °F
--% Chance of Precip.
Yesterday
High -- | Low -- °F
Precip. -- in
Pressure 29.79 in
Visibility 8.0 miles
Clouds Mostly Cloudy 1600 ft
Overcast 2100 ft
Dew Point 61 °F
Humidity 98%
Rainfall 0.30 in
Snow Depth Not available.
5:23 AM 8:19 PM
Waning Gibbous, 86% visible
METAR KHIE 230952Z AUTO 00000KT 8SM BKN016 OVC021 17/16 A2980 RMK AO2 SLP086 T01720156
Pressure 29.79 in
Visibility 8.0 miles
Clouds Mostly Cloudy 1600 ft
Overcast 2100 ft
Dew Point 61 °F
Humidity 98%
Rainfall 0.30 in
Snow Depth Not available.
5:23 AM 8:19 PM
Waning Gibbous, 86% visible
METAR KHIE 230952Z AUTO 00000KT 8SM BKN016 OVC021 17/16 A2980 RMK AO2 SLP086 T01720156

10-Day Weather Forecast

Almanac

Astronomy

Jul. 23, 2016 Rise Set
Actual Time
Civil Twilight
Nautical Twilight
Astronomical Twilight
Moon
Length of Visible Light
Length of Day
Tomorrow will be .
, % of the Moon is Illuminated

Today's Extremes

State Highs State Lows

Community

WunderPhotos

Upload Photos

1,926,789 photos uploaded!

WunderBlog® & News

Nearby

Air Quality

  Air Quality AQ Index Pollutant
Not available.

Snow Depth

Station Depth Elevation

Earthquake Activity

City Distance Mag. Time & Date
Minimum magnitude displayed is 2.5.

Coastal Water Temperatures

Place Temperature

Stations

Nearby Weather Stations

Station Location Temp. Windchill Dew Point Humidity Wind Precip. Elev Updated Type
                   

Watches & Warnings

There are currently no watches in effect.